Aviation Digital Data Service (ADDS)

Output produced by METARs form (1120 UTC 31 July 2015)
found at http://aviationweather.gov/adds/metars/
 
KDAN 310520Z 3106/0106 35006KT P6SM SKC